Terminal Aerodrome Forecast
Issued by NWS

Home | Current Version | Previous Version | Text Only | Print | Product List | Glossary On
Versions: 1 2 3 4 5 6 7 8 9 10 11 12 13 14 15 16 17 18 19 20 21 22 23 24
000
FTUS46 KSEW 311700
TAFOLM
TAF
KOLM 311740Z 3118/0118 VRB03KT 1SM BR VV002
      TEMPO 3118/3121 1/4SM FG
     FM312200 VRB03KT 3SM BR OVC004
     FM010000 VRB03KT 6SM BR SCT007 OVC250
     FM010600 VRB03KT 2SM BR FEW050 BKN100 OVC250
     FM011200 VRB03KT 4SM -RA BR SCT025 OVC050=

USA.gov is the U.S. government's official web portal to all federal, state and local government web resources and services.